createdAt,value
2022-12-16T00:01:35.204Z,55.42
2022-12-16T00:04:02.288Z,54.00
2022-12-16T00:06:32.793Z,55.20
2022-12-16T00:09:01.074Z,53.53
2022-12-16T00:11:28.832Z,53.45
2022-12-16T00:13:55.979Z,52.30
2022-12-16T00:16:23.159Z,50.50
2022-12-16T00:18:51.717Z,51.22
2022-12-16T00:21:19.927Z,51.45
2022-12-16T00:23:47.863Z,53.25
2022-12-16T00:26:15.108Z,53.38
2022-12-16T00:28:44.030Z,54.33
2022-12-16T00:31:11.545Z,53.42
2022-12-16T00:33:38.741Z,52.17
2022-12-16T00:36:06.191Z,56.38
2022-12-16T00:38:33.470Z,54.88
2022-12-16T00:41:00.643Z,51.83
2022-12-16T00:43:27.781Z,52.72
2022-12-16T00:45:55.029Z,49.80
2022-12-16T00:48:23.526Z,51.45
2022-12-16T00:50:52.970Z,50.53
2022-12-16T00:53:23.738Z,51.40
2022-12-16T00:55:51.039Z,49.10
2022-12-16T00:58:19.104Z,50.78
2022-12-16T01:00:46.653Z,51.58
2022-12-16T01:03:19.389Z,52.42
2022-12-16T01:05:48.581Z,52.72
2022-12-16T01:08:15.913Z,52.05
2022-12-16T01:10:43.213Z,51.88
2022-12-16T01:13:10.384Z,52.63
2022-12-16T01:15:37.879Z,52.30
2022-12-16T01:18:05.594Z,52.05
2022-12-16T01:20:33.560Z,50.22
2022-12-16T01:23:01.038Z,50.45
2022-12-16T01:25:28.311Z,51.72
2022-12-16T01:27:55.631Z,48.35
2022-12-16T01:30:23.375Z,51.85
2022-12-16T01:32:50.648Z,50.53
2022-12-16T01:35:50.963Z,47.97
2022-12-16T01:38:05.237Z,51.90
2022-12-16T01:40:32.492Z,50.92
2022-12-16T01:42:59.597Z,51.67
2022-12-16T01:45:36.114Z,50.75
2022-12-16T01:48:27.628Z,49.38
2022-12-16T01:51:01.601Z,50.20
2022-12-16T01:53:30.573Z,52.53
2022-12-16T01:55:58.797Z,53.70
2022-12-16T01:58:30.357Z,51.88
2022-12-16T02:00:57.997Z,50.17
2022-12-16T02:03:27.563Z,51.40
2022-12-16T02:05:56.003Z,50.17
2022-12-16T02:08:23.121Z,54.42
2022-12-16T02:11:09.256Z,52.47
2022-12-16T02:13:39.669Z,53.22
2022-12-16T02:16:26.705Z,54.03
2022-12-16T02:19:12.897Z,52.85
2022-12-16T02:22:00.856Z,51.38
2022-12-16T02:25:03.209Z,54.85
2022-12-16T02:27:51.666Z,52.00
2022-12-16T02:30:27.445Z,51.92
2022-12-16T02:33:10.452Z,52.00
2022-12-16T02:35:56.463Z,54.08
2022-12-16T02:38:46.018Z,51.50
2022-12-16T02:41:26.769Z,52.15
2022-12-16T02:44:10.940Z,50.25
2022-12-16T02:46:44.539Z,39.75
2022-12-16T02:49:12.581Z,51.97
2022-12-16T02:51:40.243Z,52.63
2022-12-16T02:54:09.720Z,51.25
2022-12-16T02:56:42.143Z,52.20
2022-12-16T02:59:35.743Z,52.15
2022-12-16T03:02:26.378Z,51.47
2022-12-16T03:05:00.000Z,53.25
2022-12-16T03:07:31.451Z,53.67
2022-12-16T03:09:59.975Z,50.97
2022-12-16T03:12:27.463Z,52.50
2022-12-16T03:14:55.587Z,54.63
2022-12-16T03:17:25.396Z,52.63
2022-12-16T03:20:04.326Z,53.22
2022-12-16T03:22:34.410Z,53.95
2022-12-16T03:25:01.503Z,56.10
2022-12-16T03:27:58.384Z,54.60
2022-12-16T03:30:33.125Z,56.35
2022-12-16T03:33:07.188Z,57.53
2022-12-16T03:35:42.682Z,56.35
2022-12-16T03:38:12.636Z,54.53
2022-12-16T03:40:42.692Z,54.75
2022-12-16T03:43:12.108Z,55.10
2022-12-16T03:45:41.864Z,54.78
2022-12-16T03:48:10.715Z,55.88
2022-12-16T03:50:39.512Z,56.28
2022-12-16T03:53:07.757Z,55.17
2022-12-16T03:55:35.934Z,55.20
2022-12-16T03:58:03.022Z,54.85
2022-12-16T04:00:30.088Z,55.35
2022-12-16T04:02:57.403Z,58.22
2022-12-16T04:05:24.695Z,54.63
2022-12-16T04:07:51.923Z,55.15
2022-12-16T04:10:39.118Z,56.55
2022-12-16T04:13:26.152Z,59.88
2022-12-16T04:16:13.406Z,56.55
2022-12-16T04:19:01.189Z,56.08
2022-12-16T04:21:48.372Z,54.47
2022-12-16T04:24:19.594Z,55.17
2022-12-16T04:27:13.563Z,51.17
2022-12-16T04:30:02.750Z,52.13
2022-12-16T04:32:52.076Z,53.25
2022-12-16T04:35:39.588Z,52.22
2022-12-16T04:38:26.626Z,51.15
2022-12-16T04:41:13.898Z,54.83
2022-12-16T04:44:01.146Z,51.83
2022-12-16T04:46:48.441Z,52.03
2022-12-16T04:49:35.489Z,53.72
2022-12-16T04:52:22.759Z,54.30
2022-12-16T04:55:10.025Z,51.97
2022-12-16T04:57:57.031Z,54.38
2022-12-16T05:00:44.060Z,55.13
2022-12-16T05:03:31.457Z,54.40
2022-12-16T05:06:19.003Z,54.55
2022-12-16T05:09:06.035Z,54.38
2022-12-16T05:11:53.091Z,54.00
2022-12-16T05:14:40.126Z,53.88
2022-12-16T05:17:27.344Z,54.00
2022-12-16T05:20:14.619Z,53.63
2022-12-16T05:23:02.561Z,53.90
2022-12-16T05:25:49.768Z,55.35
2022-12-16T05:28:37.111Z,55.10
2022-12-16T05:31:24.910Z,57.92
2022-12-16T05:34:12.166Z,57.28
2022-12-16T05:36:59.453Z,55.22
2022-12-16T05:39:46.607Z,55.28
2022-12-16T05:42:33.713Z,53.50
2022-12-16T05:45:20.877Z,58.10
2022-12-16T05:48:09.203Z,55.00
2022-12-16T05:50:56.210Z,55.88
2022-12-16T05:53:55.257Z,55.22
2022-12-16T05:56:42.348Z,54.63
2022-12-16T05:59:29.900Z,59.30
2022-12-16T06:02:17.033Z,54.92
2022-12-16T06:05:04.412Z,53.67
2022-12-16T06:07:51.509Z,57.40
2022-12-16T06:10:41.988Z,54.17
2022-12-16T06:13:29.361Z,54.60
2022-12-16T06:16:16.744Z,55.05
2022-12-16T06:19:03.812Z,52.50
2022-12-16T06:21:50.768Z,54.85
2022-12-16T06:24:37.830Z,53.10
2022-12-16T06:27:25.089Z,53.33
2022-12-16T06:30:12.145Z,52.55
2022-12-16T06:32:59.079Z,54.67
2022-12-16T06:35:46.382Z,53.03
2022-12-16T06:38:33.300Z,53.70
2022-12-16T06:41:20.317Z,54.25
2022-12-16T06:44:07.342Z,50.35
2022-12-16T06:46:54.375Z,55.22
2022-12-16T06:49:59.622Z,51.00
2022-12-16T06:52:46.707Z,54.30
2022-12-16T06:55:33.846Z,56.25
2022-12-16T06:58:21.325Z,56.85
2022-12-16T07:01:08.453Z,53.55
2022-12-16T07:03:55.480Z,55.63
2022-12-16T07:06:42.590Z,56.35
2022-12-16T07:09:29.757Z,53.50
2022-12-16T07:12:16.808Z,52.17
2022-12-16T07:15:03.840Z,53.13
2022-12-16T07:17:50.902Z,55.20
2022-12-16T07:20:38.045Z,58.00
2022-12-16T07:23:25.241Z,59.83
2022-12-16T07:26:12.319Z,59.13
2022-12-16T07:28:59.324Z,58.60
2022-12-16T07:31:46.561Z,55.08
2022-12-16T07:34:40.254Z,54.38
2022-12-16T07:37:28.444Z,55.28
2022-12-16T07:40:15.601Z,54.17
2022-12-16T07:43:03.179Z,53.45
2022-12-16T07:45:50.424Z,53.22
2022-12-16T07:48:37.952Z,53.90
2022-12-16T07:51:25.089Z,53.22
2022-12-16T07:54:12.079Z,53.72
2022-12-16T07:56:59.253Z,53.10
2022-12-16T07:59:46.615Z,53.70
2022-12-16T08:02:33.762Z,53.50
2022-12-16T08:05:20.906Z,53.33
2022-12-16T08:08:07.908Z,50.28
2022-12-16T08:10:55.297Z,54.35
2022-12-16T08:13:42.406Z,55.72
2022-12-16T08:16:29.583Z,54.35
2022-12-16T08:19:16.791Z,55.65
2022-12-16T08:22:03.971Z,54.67
2022-12-16T08:24:53.532Z,54.80
2022-12-16T08:27:43.211Z,53.72
2022-12-16T08:30:30.825Z,51.15
2022-12-16T08:33:30.774Z,51.45
2022-12-16T08:36:18.879Z,51.65
2022-12-16T08:39:05.907Z,52.15
2022-12-16T08:41:53.072Z,51.03
2022-12-16T08:44:41.141Z,50.97
2022-12-16T08:47:28.299Z,50.10
2022-12-16T08:50:15.256Z,51.28
2022-12-16T08:53:02.240Z,48.97
2022-12-16T08:55:49.368Z,50.83
2022-12-16T08:58:36.300Z,49.78
2022-12-16T09:01:23.562Z,50.67
2022-12-16T09:04:10.768Z,51.00
2022-12-16T09:06:57.752Z,52.95
2022-12-16T09:09:44.851Z,51.40
2022-12-16T09:12:31.809Z,50.63
2022-12-16T09:15:18.742Z,49.47
2022-12-16T09:18:05.806Z,46.40
2022-12-16T09:20:52.872Z,48.47
2022-12-16T09:23:40.047Z,47.33
2022-12-16T09:26:27.155Z,48.13
2022-12-16T09:29:14.137Z,45.92
2022-12-16T09:32:01.240Z,48.65
2022-12-16T09:34:48.311Z,46.63
2022-12-16T09:37:35.563Z,47.83
2022-12-16T09:40:22.980Z,49.38
2022-12-16T09:43:17.508Z,51.78
2022-12-16T09:46:09.093Z,51.00
2022-12-16T09:49:36.067Z,53.35
2022-12-16T09:52:26.134Z,50.15
2022-12-16T09:55:13.405Z,51.42
2022-12-16T09:58:00.484Z,49.30
2022-12-16T10:00:48.800Z,48.60
2022-12-16T10:03:43.745Z,48.05
2022-12-16T10:06:58.157Z,48.45
2022-12-16T10:10:05.063Z,46.17
2022-12-16T10:12:58.911Z,44.78
2022-12-16T10:15:49.319Z,47.60
2022-12-16T10:18:50.028Z,47.78
2022-12-16T10:21:43.584Z,45.75
2022-12-16T10:24:59.941Z,48.00
2022-12-16T10:27:59.701Z,45.13
2022-12-16T10:30:47.540Z,46.00
2022-12-16T10:33:36.302Z,45.15
2022-12-16T10:36:26.216Z,42.90
2022-12-16T10:39:20.479Z,47.13
2022-12-16T10:42:11.914Z,47.20
2022-12-16T10:45:18.105Z,48.50
2022-12-16T10:48:05.099Z,46.03
2022-12-16T10:50:52.226Z,48.47
2022-12-16T10:53:46.759Z,50.10
2022-12-16T10:56:58.297Z,49.15
2022-12-16T10:59:57.249Z,50.78
2022-12-16T11:02:46.608Z,49.03
2022-12-16T11:05:46.868Z,49.30
2022-12-16T11:08:55.474Z,47.67
2022-12-16T11:11:44.305Z,46.75
2022-12-16T11:15:05.521Z,45.28
2022-12-16T11:17:52.047Z,50.22
2022-12-16T11:20:44.089Z,50.10
2022-12-16T11:23:33.461Z,49.95
2022-12-16T11:26:38.731Z,48.90
2022-12-16T11:29:26.754Z,38.22
2022-12-16T11:32:17.308Z,49.38
2022-12-16T11:35:10.501Z,50.40
2022-12-16T11:38:00.151Z,49.50
2022-12-16T11:40:49.444Z,47.58
2022-12-16T11:43:39.255Z,48.40
2022-12-16T11:46:32.803Z,46.92
2022-12-16T11:49:25.494Z,47.38
2022-12-16T11:52:36.427Z,49.25
2022-12-16T11:59:02.266Z,48.50
2022-12-16T12:01:58.840Z,46.78
2022-12-16T12:04:46.066Z,47.63
2022-12-16T12:08:01.596Z,48.72
2022-12-16T12:11:22.652Z,39.13
2022-12-16T12:14:33.287Z,48.67
2022-12-16T12:17:20.331Z,47.88
2022-12-16T12:20:11.826Z,48.20
2022-12-16T12:23:00.259Z,50.17
2022-12-16T12:25:52.939Z,52.28
2022-12-16T12:29:08.603Z,53.38
2022-12-16T12:32:09.311Z,50.75
2022-12-16T12:34:56.428Z,52.75
2022-12-16T12:37:49.056Z,50.13
2022-12-16T12:41:02.623Z,50.45
2022-12-16T12:43:57.236Z,50.03
2022-12-16T12:46:53.629Z,36.92
2022-12-16T12:49:49.241Z,47.50
2022-12-16T12:52:55.117Z,48.22
2022-12-16T12:55:43.671Z,47.67
2022-12-16T12:58:32.224Z,48.13
2022-12-16T13:01:22.502Z,49.42
2022-12-16T13:04:18.787Z,48.80
2022-12-16T13:07:06.700Z,48.05
2022-12-16T13:09:55.599Z,49.28
2022-12-16T13:12:50.443Z,48.60
2022-12-16T13:15:39.527Z,36.67
2022-12-16T13:18:26.632Z,47.55
2022-12-16T13:21:16.825Z,47.17
2022-12-16T13:24:05.255Z,45.38
2022-12-16T13:26:54.877Z,45.35
2022-12-16T13:29:47.831Z,45.90
2022-12-16T13:32:39.694Z,43.47
2022-12-16T13:35:30.268Z,45.97
2022-12-16T13:38:18.920Z,45.97
2022-12-16T13:41:10.865Z,48.00
2022-12-16T13:44:18.812Z,47.08
2022-12-16T13:47:12.336Z,48.80
2022-12-16T13:50:01.119Z,44.53
2022-12-16T13:53:08.051Z,46.67
2022-12-16T13:56:16.199Z,42.75
2022-12-16T13:59:12.061Z,41.28
2022-12-16T14:02:09.841Z,35.65
2022-12-16T14:05:00.058Z,36.63
2022-12-16T14:07:47.801Z,36.10
2022-12-16T14:10:56.826Z,34.70
2022-12-16T14:14:03.834Z,35.72
2022-12-16T14:17:10.824Z,37.70
2022-12-16T14:20:05.370Z,37.45
2022-12-16T14:23:08.627Z,28.90
2022-12-16T14:25:55.878Z,36.80
2022-12-16T14:29:00.214Z,36.13
2022-12-16T14:31:52.653Z,35.58
2022-12-16T14:34:43.115Z,36.90
2022-12-16T14:37:58.119Z,34.45
2022-12-16T14:40:50.772Z,24.73
2022-12-16T14:43:40.360Z,33.78
2022-12-16T14:46:38.835Z,32.72
2022-12-16T14:49:39.789Z,30.30
2022-12-16T14:52:45.851Z,29.63
2022-12-16T14:55:38.887Z,35.70
2022-12-16T14:58:31.946Z,31.85
2022-12-16T15:01:22.130Z,33.70
2022-12-16T15:04:10.134Z,32.10
2022-12-16T15:07:01.812Z,34.25
2022-12-16T15:09:57.942Z,41.25
2022-12-16T15:12:48.755Z,43.45
2022-12-16T15:15:49.110Z,39.05
2022-12-16T15:18:40.441Z,37.67
2022-12-16T15:21:28.428Z,34.85
2022-12-16T15:24:16.656Z,33.72
2022-12-16T15:27:04.069Z,30.35
2022-12-16T15:30:00.928Z,31.63
2022-12-16T15:32:48.033Z,33.97
2022-12-16T15:35:56.680Z,38.78
2022-12-16T15:38:54.219Z,43.20
2022-12-16T15:41:51.318Z,46.33
2022-12-16T15:44:41.293Z,43.58
2022-12-16T15:47:50.986Z,35.03
2022-12-16T15:50:41.965Z,32.17
2022-12-16T15:53:51.984Z,43.30
2022-12-16T15:56:44.537Z,37.28
2022-12-16T15:59:44.180Z,35.33
2022-12-16T16:02:37.388Z,30.92
2022-12-16T16:05:36.314Z,30.20
2022-12-16T16:08:23.526Z,31.50
2022-12-16T16:11:10.737Z,30.13
2022-12-16T16:14:04.230Z,30.92
2022-12-16T16:16:53.468Z,30.02
2022-12-16T16:19:44.906Z,30.75
2022-12-16T16:22:34.407Z,30.35
2022-12-16T16:25:21.801Z,29.70
2022-12-16T16:28:08.958Z,39.33
2022-12-16T16:30:55.970Z,39.00
2022-12-16T16:33:43.072Z,32.67
2022-12-16T16:36:34.718Z,32.58
2022-12-16T16:39:21.822Z,33.97
2022-12-16T16:42:08.903Z,35.00
2022-12-16T16:44:55.978Z,41.25
2022-12-16T16:47:43.058Z,44.67
2022-12-16T16:50:34.845Z,39.90
2022-12-16T16:53:21.915Z,34.70
2022-12-16T16:56:19.758Z,32.13
2022-12-16T16:59:07.383Z,34.15
2022-12-16T17:01:54.679Z,29.98
2022-12-16T17:04:42.018Z,29.45
2022-12-16T17:07:28.959Z,26.95
2022-12-16T17:10:16.042Z,27.33
2022-12-16T17:13:04.813Z,27.05
2022-12-16T17:15:57.275Z,26.65
2022-12-16T17:18:49.014Z,28.40
2022-12-16T17:21:39.082Z,30.05
2022-12-16T17:24:26.340Z,32.58
2022-12-16T17:27:13.293Z,31.58
2022-12-16T17:30:00.466Z,32.17
2022-12-16T17:32:47.573Z,31.05
2022-12-16T17:35:34.694Z,31.42
2022-12-16T17:38:21.789Z,31.73
2022-12-16T17:41:13.143Z,30.75
2022-12-16T17:44:00.221Z,30.23
2022-12-16T17:46:47.310Z,29.85
2022-12-16T17:49:34.427Z,32.10
2022-12-16T17:52:21.572Z,33.67
2022-12-16T17:55:08.550Z,31.23
2022-12-16T17:57:55.734Z,33.75
2022-12-16T18:00:42.757Z,35.35
2022-12-16T18:03:30.186Z,37.50
2022-12-16T18:06:17.698Z,39.38
2022-12-16T18:09:05.082Z,37.15
2022-12-16T18:11:51.983Z,38.92
2022-12-16T18:14:39.020Z,38.75
2022-12-16T18:17:26.170Z,36.13
2022-12-16T18:20:13.342Z,34.83
2022-12-16T18:23:00.657Z,34.72
2022-12-16T18:25:47.866Z,33.60
2022-12-16T18:28:34.970Z,32.72
2022-12-16T18:31:25.823Z,34.90
2022-12-16T18:34:12.785Z,33.53
2022-12-16T18:37:00.112Z,33.15
2022-12-16T18:39:47.249Z,34.13
2022-12-16T18:42:34.314Z,35.75
2022-12-16T18:45:21.669Z,37.90
2022-12-16T18:48:08.783Z,42.38
2022-12-16T18:50:56.187Z,39.13
2022-12-16T18:53:43.665Z,39.70
2022-12-16T18:56:31.390Z,40.08
2022-12-16T18:59:19.630Z,40.65
2022-12-16T19:02:06.717Z,41.67
2022-12-16T19:04:53.877Z,41.55
2022-12-16T19:07:41.129Z,37.00
2022-12-16T19:10:28.805Z,36.58
2022-12-16T19:13:17.377Z,35.88
2022-12-16T19:16:17.193Z,34.90
2022-12-16T19:19:05.638Z,33.90
2022-12-16T19:21:56.516Z,34.97
2022-12-16T19:24:44.810Z,35.47
2022-12-16T19:27:32.999Z,37.28
2022-12-16T19:30:20.279Z,35.45
2022-12-16T19:33:09.335Z,35.75
2022-12-16T19:35:56.828Z,37.28
2022-12-16T19:38:44.404Z,33.97
2022-12-16T19:41:36.368Z,36.25
2022-12-16T19:44:24.771Z,36.42
2022-12-16T19:47:11.804Z,35.75
2022-12-16T19:49:59.031Z,34.88
2022-12-16T19:52:46.125Z,38.92
2022-12-16T19:55:33.201Z,35.97
2022-12-16T19:58:20.274Z,37.63
2022-12-16T20:01:07.464Z,38.53
2022-12-16T20:03:56.573Z,40.15
2022-12-16T20:06:44.072Z,38.75
2022-12-16T20:09:31.153Z,38.22
2022-12-16T20:12:18.650Z,37.22
2022-12-16T20:15:05.933Z,39.92
2022-12-16T20:17:56.126Z,37.20
2022-12-16T20:20:43.385Z,37.15
2022-12-16T20:23:30.453Z,36.75
2022-12-16T20:26:20.060Z,37.13
2022-12-16T20:29:07.373Z,37.22
2022-12-16T20:35:02.103Z,34.80
2022-12-16T20:37:49.316Z,37.70
2022-12-16T20:40:36.759Z,37.10
2022-12-16T20:43:23.932Z,39.25
2022-12-16T20:46:15.570Z,40.95
2022-12-16T20:49:02.864Z,40.97
2022-12-16T20:51:49.916Z,41.08
2022-12-16T20:54:36.967Z,42.97
2022-12-16T20:57:24.027Z,42.08
2022-12-16T21:00:10.986Z,40.30
2022-12-16T21:02:58.117Z,38.03
2022-12-16T21:05:46.533Z,38.88
2022-12-16T21:08:33.507Z,38.25
2022-12-16T21:11:20.532Z,38.25
2022-12-16T21:14:07.498Z,36.45
2022-12-16T21:16:54.579Z,34.83
2022-12-16T21:19:43.221Z,33.55
2022-12-16T21:22:30.411Z,34.53
2022-12-16T21:25:21.216Z,34.13
2022-12-16T21:28:15.614Z,33.33
2022-12-16T21:31:02.973Z,34.08
2022-12-16T21:33:50.200Z,33.75
2022-12-16T21:36:37.221Z,32.70
2022-12-16T21:39:24.435Z,34.15
2022-12-16T21:42:11.563Z,34.50
2022-12-16T21:44:58.802Z,36.00
2022-12-16T21:47:45.863Z,38.50
2022-12-16T21:50:32.941Z,40.45
2022-12-16T21:53:20.026Z,41.80
2022-12-16T21:56:16.243Z,39.35
2022-12-16T21:59:03.846Z,40.05
2022-12-16T22:01:50.889Z,38.35
2022-12-16T22:04:38.952Z,37.80
2022-12-16T22:07:26.335Z,36.67
2022-12-16T22:10:13.537Z,36.85
2022-12-16T22:13:00.752Z,37.05
2022-12-16T22:15:47.929Z,40.50
2022-12-16T22:18:37.086Z,38.78
2022-12-16T22:21:26.044Z,39.05
2022-12-16T22:24:13.497Z,38.13
2022-12-16T22:27:00.679Z,37.90
2022-12-16T22:29:47.682Z,37.72
2022-12-16T22:32:34.707Z,35.45
2022-12-16T22:35:21.849Z,35.10
2022-12-16T22:38:08.835Z,32.15
2022-12-16T22:40:56.576Z,27.58
2022-12-16T22:43:52.113Z,27.95
2022-12-16T22:46:39.278Z,28.63
2022-12-16T22:49:26.359Z,33.13
2022-12-16T22:52:13.671Z,33.38
2022-12-16T22:55:00.781Z,36.38
2022-12-16T22:57:50.851Z,40.17
2022-12-16T23:00:40.859Z,37.70
2022-12-16T23:03:27.806Z,37.90
2022-12-16T23:06:14.908Z,37.60
2022-12-16T23:09:01.830Z,38.40
2022-12-16T23:11:56.440Z,39.10
2022-12-16T23:14:44.503Z,41.15
2022-12-16T23:17:32.678Z,37.80
2022-12-16T23:20:19.966Z,38.15
2022-12-16T23:23:06.874Z,39.13
2022-12-16T23:25:59.653Z,38.55
2022-12-16T23:28:46.583Z,38.03
2022-12-16T23:31:33.655Z,39.05
2022-12-16T23:34:20.801Z,39.63
2022-12-16T23:37:07.854Z,39.22
2022-12-16T23:39:54.972Z,37.72
2022-12-16T23:42:43.525Z,32.92
2022-12-16T23:45:30.768Z,28.30
2022-12-16T23:48:23.657Z,26.30
2022-12-16T23:51:11.155Z,26.33
2022-12-16T23:53:58.193Z,24.25
2022-12-16T23:56:45.678Z,23.67
2022-12-16T23:59:32.702Z,24.02
